sensor_id;sensor_type;location;lat;lon;timestamp;temperature;humidity
64888;DHT22;51386;53.082;8.816;2022-07-25T00:01:02;26.20;54.00
64888;DHT22;51386;53.082;8.816;2022-07-25T00:03:32;26.20;54.10
64888;DHT22;51386;53.082;8.816;2022-07-25T00:06:00;26.10;54.00
64888;DHT22;51386;53.082;8.816;2022-07-25T00:08:27;26.10;53.90
64888;DHT22;51386;53.082;8.816;2022-07-25T00:10:55;26.10;54.00
64888;DHT22;51386;53.082;8.816;2022-07-25T00:13:22;26.10;53.90
64888;DHT22;51386;53.082;8.816;2022-07-25T00:15:51;26.00;53.80
64888;DHT22;51386;53.082;8.816;2022-07-25T00:18:18;26.00;53.90
64888;DHT22;51386;53.082;8.816;2022-07-25T00:20:46;26.00;54.60
64888;DHT22;51386;53.082;8.816;2022-07-25T00:23:13;26.00;54.00
64888;DHT22;51386;53.082;8.816;2022-07-25T00:25:40;26.00;54.00
64888;DHT22;51386;53.082;8.816;2022-07-25T00:28:08;26.00;54.00
64888;DHT22;51386;53.082;8.816;2022-07-25T00:30:35;25.90;54.00
64888;DHT22;51386;53.082;8.816;2022-07-25T00:33:04;25.90;54.10
64888;DHT22;51386;53.082;8.816;2022-07-25T00:35:32;25.90;54.00
64888;DHT22;51386;53.082;8.816;2022-07-25T00:37:59;25.90;54.20
64888;DHT22;51386;53.082;8.816;2022-07-25T00:40:26;25.80;54.20
64888;DHT22;51386;53.082;8.816;2022-07-25T00:42:54;25.80;54.90
64888;DHT22;51386;53.082;8.816;2022-07-25T00:45:21;25.80;54.20
64888;DHT22;51386;53.082;8.816;2022-07-25T00:47:49;25.80;54.30
64888;DHT22;51386;53.082;8.816;2022-07-25T00:50:18;25.70;54.30
64888;DHT22;51386;53.082;8.816;2022-07-25T00:52:45;25.70;54.50
64888;DHT22;51386;53.082;8.816;2022-07-25T00:55:14;25.70;54.50
64888;DHT22;51386;53.082;8.816;2022-07-25T00:57:42;25.60;54.40
64888;DHT22;51386;53.082;8.816;2022-07-25T01:00:11;25.60;54.60
64888;DHT22;51386;53.082;8.816;2022-07-25T01:02:41;25.60;54.60
64888;DHT22;51386;53.082;8.816;2022-07-25T01:05:09;25.50;54.80
64888;DHT22;51386;53.082;8.816;2022-07-25T01:07:39;25.50;54.80
64888;DHT22;51386;53.082;8.816;2022-07-25T01:10:07;25.40;54.80
64888;DHT22;51386;53.082;8.816;2022-07-25T01:12:49;25.40;54.90
64888;DHT22;51386;53.082;8.816;2022-07-25T01:15:19;25.40;55.10
64888;DHT22;51386;53.082;8.816;2022-07-25T01:17:48;25.40;55.10
64888;DHT22;51386;53.082;8.816;2022-07-25T01:20:17;25.40;55.20
64888;DHT22;51386;53.082;8.816;2022-07-25T01:22:46;25.40;55.30
64888;DHT22;51386;53.082;8.816;2022-07-25T01:25:14;25.40;55.20
64888;DHT22;51386;53.082;8.816;2022-07-25T01:27:42;25.30;55.20
64888;DHT22;51386;53.082;8.816;2022-07-25T01:30:11;25.30;55.20
64888;DHT22;51386;53.082;8.816;2022-07-25T01:32:41;25.20;55.20
64888;DHT22;51386;53.082;8.816;2022-07-25T01:35:11;25.20;55.20
64888;DHT22;51386;53.082;8.816;2022-07-25T01:37:41;25.20;55.40
64888;DHT22;51386;53.082;8.816;2022-07-25T01:40:12;25.10;56.00
64888;DHT22;51386;53.082;8.816;2022-07-25T01:42:40;25.10;55.40
64888;DHT22;51386;53.082;8.816;2022-07-25T01:45:09;25.10;55.60
64888;DHT22;51386;53.082;8.816;2022-07-25T01:47:37;25.10;55.60
64888;DHT22;51386;53.082;8.816;2022-07-25T01:50:06;25.10;55.70
64888;DHT22;51386;53.082;8.816;2022-07-25T01:52:35;25.10;55.80
64888;DHT22;51386;53.082;8.816;2022-07-25T01:55:04;25.10;56.10
64888;DHT22;51386;53.082;8.816;2022-07-25T01:57:33;25.10;56.00
64888;DHT22;51386;53.082;8.816;2022-07-25T02:00:03;25.00;56.00
64888;DHT22;51386;53.082;8.816;2022-07-25T02:02:32;25.00;56.10
64888;DHT22;51386;53.082;8.816;2022-07-25T02:04:59;25.00;56.30
64888;DHT22;51386;53.082;8.816;2022-07-25T02:07:26;24.90;56.30
64888;DHT22;51386;53.082;8.816;2022-07-25T02:09:54;24.90;56.50
64888;DHT22;51386;53.082;8.816;2022-07-25T02:12:24;24.90;56.60
64888;DHT22;51386;53.082;8.816;2022-07-25T02:14:51;24.90;56.50
64888;DHT22;51386;53.082;8.816;2022-07-25T02:17:19;24.80;56.50
64888;DHT22;51386;53.082;8.816;2022-07-25T02:19:46;24.80;56.60
64888;DHT22;51386;53.082;8.816;2022-07-25T02:22:14;24.70;56.40
64888;DHT22;51386;53.082;8.816;2022-07-25T02:24:41;24.70;56.50
64888;DHT22;51386;53.082;8.816;2022-07-25T02:27:09;24.70;56.50
64888;DHT22;51386;53.082;8.816;2022-07-25T02:29:38;24.70;56.50
64888;DHT22;51386;53.082;8.816;2022-07-25T02:32:05;24.60;56.50
64888;DHT22;51386;53.082;8.816;2022-07-25T02:34:33;24.60;56.50
64888;DHT22;51386;53.082;8.816;2022-07-25T02:37:00;24.60;56.60
64888;DHT22;51386;53.082;8.816;2022-07-25T02:39:27;24.60;56.60
64888;DHT22;51386;53.082;8.816;2022-07-25T02:41:55;24.60;56.60
64888;DHT22;51386;53.082;8.816;2022-07-25T02:44:22;24.50;56.70
64888;DHT22;51386;53.082;8.816;2022-07-25T02:46:51;24.50;56.80
64888;DHT22;51386;53.082;8.816;2022-07-25T02:49:18;24.50;56.80
64888;DHT22;51386;53.082;8.816;2022-07-25T02:51:46;24.40;56.70
64888;DHT22;51386;53.082;8.816;2022-07-25T02:54:13;24.40;56.80
64888;DHT22;51386;53.082;8.816;2022-07-25T02:56:42;24.40;56.90
64888;DHT22;51386;53.082;8.816;2022-07-25T02:59:09;24.40;56.80
64888;DHT22;51386;53.082;8.816;2022-07-25T03:01:36;24.40;56.70
64888;DHT22;51386;53.082;8.816;2022-07-25T03:04:05;24.30;56.70
64888;DHT22;51386;53.082;8.816;2022-07-25T03:06:33;24.30;56.70
64888;DHT22;51386;53.082;8.816;2022-07-25T03:09:01;24.30;56.80
64888;DHT22;51386;53.082;8.816;2022-07-25T03:11:28;24.20;56.70
64888;DHT22;51386;53.082;8.816;2022-07-25T03:13:56;24.30;56.90
64888;DHT22;51386;53.082;8.816;2022-07-25T03:16:23;24.20;57.00
64888;DHT22;51386;53.082;8.816;2022-07-25T03:18:51;24.20;57.00
64888;DHT22;51386;53.082;8.816;2022-07-25T03:21:19;24.10;57.00
64888;DHT22;51386;53.082;8.816;2022-07-25T03:23:47;24.10;57.10
64888;DHT22;51386;53.082;8.816;2022-07-25T03:26:18;24.10;57.20
64888;DHT22;51386;53.082;8.816;2022-07-25T03:28:46;24.10;57.00
64888;DHT22;51386;53.082;8.816;2022-07-25T03:31:13;24.10;57.10
64888;DHT22;51386;53.082;8.816;2022-07-25T03:33:41;24.10;57.20
64888;DHT22;51386;53.082;8.816;2022-07-25T03:36:08;24.00;57.50
64888;DHT22;51386;53.082;8.816;2022-07-25T03:38:38;24.00;57.30
64888;DHT22;51386;53.082;8.816;2022-07-25T03:41:06;24.00;57.40
64888;DHT22;51386;53.082;8.816;2022-07-25T03:43:33;24.00;57.40
64888;DHT22;51386;53.082;8.816;2022-07-25T03:46:00;24.00;57.40
64888;DHT22;51386;53.082;8.816;2022-07-25T03:48:28;24.00;57.30
64888;DHT22;51386;53.082;8.816;2022-07-25T03:50:56;23.90;57.30
64888;DHT22;51386;53.082;8.816;2022-07-25T03:53:23;23.90;57.30
64888;DHT22;51386;53.082;8.816;2022-07-25T03:55:52;23.90;57.30
64888;DHT22;51386;53.082;8.816;2022-07-25T03:58:19;23.90;57.20
64888;DHT22;51386;53.082;8.816;2022-07-25T04:00:46;23.90;57.30
64888;DHT22;51386;53.082;8.816;2022-07-25T04:03:14;23.80;57.20
64888;DHT22;51386;53.082;8.816;2022-07-25T04:05:42;23.80;57.20
64888;DHT22;51386;53.082;8.816;2022-07-25T04:08:13;23.80;57.40
64888;DHT22;51386;53.082;8.816;2022-07-25T04:10:41;23.80;57.50
64888;DHT22;51386;53.082;8.816;2022-07-25T04:13:09;23.70;57.50
64888;DHT22;51386;53.082;8.816;2022-07-25T04:15:37;23.70;57.70
64888;DHT22;51386;53.082;8.816;2022-07-25T04:18:04;23.70;57.60
64888;DHT22;51386;53.082;8.816;2022-07-25T04:20:34;23.70;57.70
64888;DHT22;51386;53.082;8.816;2022-07-25T04:23:03;23.70;57.80
64888;DHT22;51386;53.082;8.816;2022-07-25T04:25:30;23.70;57.80
64888;DHT22;51386;53.082;8.816;2022-07-25T04:27:58;23.70;57.80
64888;DHT22;51386;53.082;8.816;2022-07-25T04:30:26;23.80;57.60
64888;DHT22;51386;53.082;8.816;2022-07-25T04:32:54;23.80;57.60
64888;DHT22;51386;53.082;8.816;2022-07-25T04:35:21;23.80;57.50
64888;DHT22;51386;53.082;8.816;2022-07-25T04:37:49;23.80;57.50
64888;DHT22;51386;53.082;8.816;2022-07-25T04:40:16;23.80;57.40
64888;DHT22;51386;53.082;8.816;2022-07-25T04:42:44;23.80;57.30
64888;DHT22;51386;53.082;8.816;2022-07-25T04:45:12;23.80;57.20
64888;DHT22;51386;53.082;8.816;2022-07-25T04:47:45;23.80;57.10
64888;DHT22;51386;53.082;8.816;2022-07-25T04:50:13;23.80;57.80
64888;DHT22;51386;53.082;8.816;2022-07-25T04:52:40;23.90;57.10
64888;DHT22;51386;53.082;8.816;2022-07-25T04:55:08;23.90;57.10
64888;DHT22;51386;53.082;8.816;2022-07-25T04:57:36;23.90;57.20
64888;DHT22;51386;53.082;8.816;2022-07-25T05:00:06;23.90;57.00
64888;DHT22;51386;53.082;8.816;2022-07-25T05:02:35;23.90;57.10
64888;DHT22;51386;53.082;8.816;2022-07-25T05:05:05;23.90;57.10
64888;DHT22;51386;53.082;8.816;2022-07-25T05:07:47;23.90;57.00
64888;DHT22;51386;53.082;8.816;2022-07-25T05:10:14;23.90;56.90
64888;DHT22;51386;53.082;8.816;2022-07-25T05:12:42;23.90;56.50
64888;DHT22;51386;53.082;8.816;2022-07-25T05:15:10;24.00;56.60
64888;DHT22;51386;53.082;8.816;2022-07-25T05:17:38;24.00;56.40
64888;DHT22;51386;53.082;8.816;2022-07-25T05:20:09;24.10;56.20
64888;DHT22;51386;53.082;8.816;2022-07-25T05:22:38;24.10;56.10
64888;DHT22;51386;53.082;8.816;2022-07-25T05:25:07;24.10;56.10
64888;DHT22;51386;53.082;8.816;2022-07-25T05:27:36;24.20;55.90
64888;DHT22;51386;53.082;8.816;2022-07-25T05:30:05;24.20;55.80
64888;DHT22;51386;53.082;8.816;2022-07-25T05:32:35;24.30;55.80
64888;DHT22;51386;53.082;8.816;2022-07-25T05:35:04;24.30;55.70
64888;DHT22;51386;53.082;8.816;2022-07-25T05:37:36;24.30;55.60
64888;DHT22;51386;53.082;8.816;2022-07-25T05:40:05;24.30;55.60
64888;DHT22;51386;53.082;8.816;2022-07-25T05:42:33;24.40;55.50
64888;DHT22;51386;53.082;8.816;2022-07-25T05:45:01;24.40;55.40
64888;DHT22;51386;53.082;8.816;2022-07-25T05:47:28;24.40;55.40
64888;DHT22;51386;53.082;8.816;2022-07-25T05:49:56;24.50;55.50
64888;DHT22;51386;53.082;8.816;2022-07-25T05:52:24;24.50;55.40
64888;DHT22;51386;53.082;8.816;2022-07-25T05:54:53;24.60;55.50
64888;DHT22;51386;53.082;8.816;2022-07-25T05:57:20;24.60;55.30
64888;DHT22;51386;53.082;8.816;2022-07-25T05:59:48;24.70;55.40
64888;DHT22;51386;53.082;8.816;2022-07-25T06:02:15;24.70;55.00
64888;DHT22;51386;53.082;8.816;2022-07-25T06:04:43;24.80;54.90
64888;DHT22;51386;53.082;8.816;2022-07-25T06:07:11;24.90;54.80
64888;DHT22;51386;53.082;8.816;2022-07-25T06:09:43;24.90;54.60
64888;DHT22;51386;53.082;8.816;2022-07-25T06:12:11;24.90;54.40
64888;DHT22;51386;53.082;8.816;2022-07-25T06:14:39;25.10;54.80
64888;DHT22;51386;53.082;8.816;2022-07-25T06:17:08;25.10;53.90
64888;DHT22;51386;53.082;8.816;2022-07-25T06:19:36;25.20;53.80
64888;DHT22;51386;53.082;8.816;2022-07-25T06:22:03;25.30;53.50
64888;DHT22;51386;53.082;8.816;2022-07-25T06:24:30;25.40;53.50
64888;DHT22;51386;53.082;8.816;2022-07-25T06:26:58;25.40;53.40
64888;DHT22;51386;53.082;8.816;2022-07-25T06:29:26;25.50;53.30
64888;DHT22;51386;53.082;8.816;2022-07-25T06:31:54;25.60;53.30
64888;DHT22;51386;53.082;8.816;2022-07-25T06:34:21;25.60;53.10
64888;DHT22;51386;53.082;8.816;2022-07-25T06:36:54;25.80;53.10
64888;DHT22;51386;53.082;8.816;2022-07-25T06:39:23;25.90;52.90
64888;DHT22;51386;53.082;8.816;2022-07-25T06:41:51;26.00;52.50
64888;DHT22;51386;53.082;8.816;2022-07-25T06:44:18;26.10;52.30
64888;DHT22;51386;53.082;8.816;2022-07-25T06:46:47;26.30;51.90
64888;DHT22;51386;53.082;8.816;2022-07-25T06:49:16;26.40;51.40
64888;DHT22;51386;53.082;8.816;2022-07-25T06:51:43;26.50;50.60
64888;DHT22;51386;53.082;8.816;2022-07-25T06:54:10;26.70;50.30
64888;DHT22;51386;53.082;8.816;2022-07-25T06:56:39;26.80;49.90
64888;DHT22;51386;53.082;8.816;2022-07-25T06:59:07;27.00;49.70
64888;DHT22;51386;53.082;8.816;2022-07-25T07:01:34;27.10;49.10
64888;DHT22;51386;53.082;8.816;2022-07-25T07:04:04;27.20;49.00
64888;DHT22;51386;53.082;8.816;2022-07-25T07:06:32;27.40;48.40
64888;DHT22;51386;53.082;8.816;2022-07-25T07:08:59;27.60;48.30
64888;DHT22;51386;53.082;8.816;2022-07-25T07:11:27;27.60;47.40
64888;DHT22;51386;53.082;8.816;2022-07-25T07:13:54;27.80;48.20
64888;DHT22;51386;53.082;8.816;2022-07-25T07:16:21;28.00;46.40
64888;DHT22;51386;53.082;8.816;2022-07-25T07:18:49;28.10;45.60
64888;DHT22;51386;53.082;8.816;2022-07-25T07:21:17;28.30;45.80
64888;DHT22;51386;53.082;8.816;2022-07-25T07:23:47;28.50;45.30
64888;DHT22;51386;53.082;8.816;2022-07-25T07:26:19;28.60;44.60
64888;DHT22;51386;53.082;8.816;2022-07-25T07:28:47;28.80;44.30
64888;DHT22;51386;53.082;8.816;2022-07-25T07:31:15;28.90;44.30
64888;DHT22;51386;53.082;8.816;2022-07-25T07:33:44;29.00;43.90
64888;DHT22;51386;53.082;8.816;2022-07-25T07:36:11;29.20;44.10
64888;DHT22;51386;53.082;8.816;2022-07-25T07:38:40;29.30;43.80
64888;DHT22;51386;53.082;8.816;2022-07-25T07:41:08;29.40;43.50
64888;DHT22;51386;53.082;8.816;2022-07-25T07:43:35;29.50;43.70
64888;DHT22;51386;53.082;8.816;2022-07-25T07:46:03;29.60;43.20
64888;DHT22;51386;53.082;8.816;2022-07-25T07:48:31;29.70;42.90
64888;DHT22;51386;53.082;8.816;2022-07-25T07:51:01;29.70;43.00
64888;DHT22;51386;53.082;8.816;2022-07-25T07:53:29;29.70;42.20
64888;DHT22;51386;53.082;8.816;2022-07-25T07:56:17;29.80;42.20
64888;DHT22;51386;53.082;8.816;2022-07-25T07:58:45;29.80;42.50
64888;DHT22;51386;53.082;8.816;2022-07-25T08:01:12;29.90;42.40
64888;DHT22;51386;53.082;8.816;2022-07-25T08:03:40;30.00;42.60
64888;DHT22;51386;53.082;8.816;2022-07-25T08:06:07;30.10;42.40
64888;DHT22;51386;53.082;8.816;2022-07-25T08:08:35;30.20;42.70
64888;DHT22;51386;53.082;8.816;2022-07-25T08:11:02;30.40;41.80
64888;DHT22;51386;53.082;8.816;2022-07-25T08:13:32;30.70;41.70
64888;DHT22;51386;53.082;8.816;2022-07-25T08:16:00;30.90;40.50
64888;DHT22;51386;53.082;8.816;2022-07-25T08:18:32;31.30;40.10
64888;DHT22;51386;53.082;8.816;2022-07-25T08:21:00;31.80;39.60
64888;DHT22;51386;53.082;8.816;2022-07-25T08:23:30;32.30;38.40
64888;DHT22;51386;53.082;8.816;2022-07-25T08:25:58;32.60;36.30
64888;DHT22;51386;53.082;8.816;2022-07-25T08:28:27;32.90;35.90
64888;DHT22;51386;53.082;8.816;2022-07-25T08:30:56;33.20;35.00
64888;DHT22;51386;53.082;8.816;2022-07-25T08:33:25;33.50;35.30
64888;DHT22;51386;53.082;8.816;2022-07-25T08:35:53;33.90;34.00
64888;DHT22;51386;53.082;8.816;2022-07-25T08:38:23;34.30;33.20
64888;DHT22;51386;53.082;8.816;2022-07-25T08:40:53;34.70;33.10
64888;DHT22;51386;53.082;8.816;2022-07-25T08:43:22;35.10;32.00
64888;DHT22;51386;53.082;8.816;2022-07-25T08:45:51;35.40;32.10
64888;DHT22;51386;53.082;8.816;2022-07-25T08:48:23;35.50;30.50
64888;DHT22;51386;53.082;8.816;2022-07-25T08:50:53;35.60;30.30
64888;DHT22;51386;53.082;8.816;2022-07-25T08:53:25;35.80;31.90
64888;DHT22;51386;53.082;8.816;2022-07-25T08:56:03;35.90;31.00
64888;DHT22;51386;53.082;8.816;2022-07-25T08:58:39;35.90;31.30
64888;DHT22;51386;53.082;8.816;2022-07-25T09:01:10;35.90;30.20
64888;DHT22;51386;53.082;8.816;2022-07-25T09:03:39;35.60;30.10
64888;DHT22;51386;53.082;8.816;2022-07-25T09:06:19;35.40;30.80
64888;DHT22;51386;53.082;8.816;2022-07-25T09:08:52;35.20;31.60
64888;DHT22;51386;53.082;8.816;2022-07-25T09:11:28;34.90;31.70
64888;DHT22;51386;53.082;8.816;2022-07-25T09:14:02;34.80;32.20
64888;DHT22;51386;53.082;8.816;2022-07-25T09:16:33;34.80;32.40
64888;DHT22;51386;53.082;8.816;2022-07-25T09:19:07;34.70;32.30
64888;DHT22;51386;53.082;8.816;2022-07-25T09:21:37;34.70;32.50
64888;DHT22;51386;53.082;8.816;2022-07-25T09:24:12;34.60;32.30
64888;DHT22;51386;53.082;8.816;2022-07-25T09:26:43;34.50;32.40
64888;DHT22;51386;53.082;8.816;2022-07-25T09:29:17;34.40;32.90
64888;DHT22;51386;53.082;8.816;2022-07-25T09:31:45;34.40;32.90
64888;DHT22;51386;53.082;8.816;2022-07-25T09:34:27;34.50;32.70
64888;DHT22;51386;53.082;8.816;2022-07-25T09:36:57;34.60;32.90
64888;DHT22;51386;53.082;8.816;2022-07-25T09:39:37;34.60;32.80
64888;DHT22;51386;53.082;8.816;2022-07-25T09:42:20;34.50;31.80
64888;DHT22;51386;53.082;8.816;2022-07-25T09:45:00;34.60;32.10
64888;DHT22;51386;53.082;8.816;2022-07-25T09:47:31;34.50;32.40
64888;DHT22;51386;53.082;8.816;2022-07-25T09:50:05;34.50;32.70
64888;DHT22;51386;53.082;8.816;2022-07-25T09:52:34;34.60;32.90
64888;DHT22;51386;53.082;8.816;2022-07-25T09:55:04;34.70;32.80
64888;DHT22;51386;53.082;8.816;2022-07-25T09:57:35;34.90;32.50
64888;DHT22;51386;53.082;8.816;2022-07-25T10:00:04;35.10;32.20
64888;DHT22;51386;53.082;8.816;2022-07-25T10:02:40;35.30;31.10
64888;DHT22;51386;53.082;8.816;2022-07-25T10:05:24;35.50;30.70
64888;DHT22;51386;53.082;8.816;2022-07-25T10:07:57;35.70;30.40
64888;DHT22;51386;53.082;8.816;2022-07-25T10:10:28;35.90;30.00
64888;DHT22;51386;53.082;8.816;2022-07-25T10:13:01;36.10;30.00
64888;DHT22;51386;53.082;8.816;2022-07-25T10:15:40;36.40;29.40
64888;DHT22;51386;53.082;8.816;2022-07-25T10:18:10;36.90;28.90
64888;DHT22;51386;53.082;8.816;2022-07-25T10:20:40;37.40;28.70
64888;DHT22;51386;53.082;8.816;2022-07-25T10:23:22;37.90;28.50
64888;DHT22;51386;53.082;8.816;2022-07-25T10:26:00;38.40;28.20
64888;DHT22;51386;53.082;8.816;2022-07-25T10:28:37;38.80;27.20
64888;DHT22;51386;53.082;8.816;2022-07-25T10:31:20;39.00;26.10
64888;DHT22;51386;53.082;8.816;2022-07-25T10:33:56;39.30;26.10
64888;DHT22;51386;53.082;8.816;2022-07-25T10:36:27;39.40;25.80
64888;DHT22;51386;53.082;8.816;2022-07-25T10:39:13;39.30;25.70
64888;DHT22;51386;53.082;8.816;2022-07-25T10:41:47;39.00;25.90
64888;DHT22;51386;53.082;8.816;2022-07-25T10:44:17;38.60;26.40
64888;DHT22;51386;53.082;8.816;2022-07-25T10:46:45;38.20;27.00
64888;DHT22;51386;53.082;8.816;2022-07-25T10:49:17;37.80;27.50
64888;DHT22;51386;53.082;8.816;2022-07-25T10:51:59;37.40;28.10
64888;DHT22;51386;53.082;8.816;2022-07-25T10:54:32;37.00;28.60
64888;DHT22;51386;53.082;8.816;2022-07-25T10:57:01;36.60;29.10
64888;DHT22;51386;53.082;8.816;2022-07-25T10:59:32;36.40;29.60
64888;DHT22;51386;53.082;8.816;2022-07-25T11:02:02;36.30;30.00
64888;DHT22;51386;53.082;8.816;2022-07-25T11:04:33;36.10;30.00
64888;DHT22;51386;53.082;8.816;2022-07-25T11:07:08;36.10;30.20
64888;DHT22;51386;53.082;8.816;2022-07-25T11:09:37;36.00;30.20
64888;DHT22;51386;53.082;8.816;2022-07-25T11:12:06;35.90;30.20
64888;DHT22;51386;53.082;8.816;2022-07-25T11:14:36;35.80;30.50
64888;DHT22;51386;53.082;8.816;2022-07-25T11:17:12;35.70;30.60
64888;DHT22;51386;53.082;8.816;2022-07-25T11:19:42;35.60;30.40
64888;DHT22;51386;53.082;8.816;2022-07-25T11:22:11;35.50;30.70
64888;DHT22;51386;53.082;8.816;2022-07-25T11:24:40;35.50;30.80
64888;DHT22;51386;53.082;8.816;2022-07-25T11:27:10;35.40;30.30
64888;DHT22;51386;53.082;8.816;2022-07-25T11:29:39;35.10;30.00
64888;DHT22;51386;53.082;8.816;2022-07-25T11:32:08;35.00;30.40
64888;DHT22;51386;53.082;8.816;2022-07-25T11:34:39;34.90;30.80
64888;DHT22;51386;53.082;8.816;2022-07-25T11:37:11;34.90;31.10
64888;DHT22;51386;53.082;8.816;2022-07-25T11:39:42;34.90;31.30
64888;DHT22;51386;53.082;8.816;2022-07-25T11:42:13;34.90;32.00
64888;DHT22;51386;53.082;8.816;2022-07-25T11:44:44;34.90;32.10
64888;DHT22;51386;53.082;8.816;2022-07-25T11:47:25;34.80;32.20
64888;DHT22;51386;53.082;8.816;2022-07-25T11:49:55;34.70;31.90
64888;DHT22;51386;53.082;8.816;2022-07-25T11:52:31;34.50;32.20
64888;DHT22;51386;53.082;8.816;2022-07-25T11:55:02;34.40;32.50
64888;DHT22;51386;53.082;8.816;2022-07-25T11:57:33;34.40;32.90
64888;DHT22;51386;53.082;8.816;2022-07-25T12:00:04;34.20;33.00
64888;DHT22;51386;53.082;8.816;2022-07-25T12:02:35;34.10;33.30
64888;DHT22;51386;53.082;8.816;2022-07-25T12:05:05;34.00;33.50
64888;DHT22;51386;53.082;8.816;2022-07-25T12:07:41;34.00;33.60
64888;DHT22;51386;53.082;8.816;2022-07-25T12:10:14;34.00;33.80
64888;DHT22;51386;53.082;8.816;2022-07-25T12:12:44;34.00;33.90
64888;DHT22;51386;53.082;8.816;2022-07-25T12:15:17;34.00;34.00
64888;DHT22;51386;53.082;8.816;2022-07-25T12:17:46;34.00;34.00
64888;DHT22;51386;53.082;8.816;2022-07-25T12:20:16;34.00;34.10
64888;DHT22;51386;53.082;8.816;2022-07-25T12:22:47;34.10;34.40
64888;DHT22;51386;53.082;8.816;2022-07-25T12:25:16;34.10;34.50
64888;DHT22;51386;53.082;8.816;2022-07-25T12:27:44;34.10;34.50
64888;DHT22;51386;53.082;8.816;2022-07-25T12:30:12;34.20;34.50
64888;DHT22;51386;53.082;8.816;2022-07-25T12:32:40;34.20;34.40
64888;DHT22;51386;53.082;8.816;2022-07-25T12:35:10;34.20;34.50
64888;DHT22;51386;53.082;8.816;2022-07-25T12:37:39;34.30;34.60
64888;DHT22;51386;53.082;8.816;2022-07-25T12:40:11;34.30;34.60
64888;DHT22;51386;53.082;8.816;2022-07-25T12:42:39;34.30;34.60
64888;DHT22;51386;53.082;8.816;2022-07-25T12:45:08;34.30;34.80
64888;DHT22;51386;53.082;8.816;2022-07-25T12:47:36;34.30;35.20
64888;DHT22;51386;53.082;8.816;2022-07-25T12:50:05;34.30;35.30
64888;DHT22;51386;53.082;8.816;2022-07-25T12:52:33;34.30;35.20
64888;DHT22;51386;53.082;8.816;2022-07-25T12:55:01;34.30;35.20
64888;DHT22;51386;53.082;8.816;2022-07-25T12:57:30;34.30;35.30
64888;DHT22;51386;53.082;8.816;2022-07-25T12:59:58;34.40;35.50
64888;DHT22;51386;53.082;8.816;2022-07-25T13:02:25;34.40;35.40
64888;DHT22;51386;53.082;8.816;2022-07-25T13:04:52;34.40;35.50
64888;DHT22;51386;53.082;8.816;2022-07-25T13:07:20;34.40;35.70
64888;DHT22;51386;53.082;8.816;2022-07-25T13:09:47;34.40;35.90
64888;DHT22;51386;53.082;8.816;2022-07-25T13:12:15;34.40;36.10
64888;DHT22;51386;53.082;8.816;2022-07-25T13:14:43;34.40;36.30
64888;DHT22;51386;53.082;8.816;2022-07-25T13:17:11;34.30;36.60
64888;DHT22;51386;53.082;8.816;2022-07-25T13:19:38;34.30;36.70
64888;DHT22;51386;53.082;8.816;2022-07-25T13:22:06;34.30;37.30
64888;DHT22;51386;53.082;8.816;2022-07-25T13:24:33;34.20;37.80
64888;DHT22;51386;53.082;8.816;2022-07-25T13:27:02;34.10;38.30
64888;DHT22;51386;53.082;8.816;2022-07-25T13:29:29;34.10;39.20
64888;DHT22;51386;53.082;8.816;2022-07-25T13:31:58;33.90;39.80
64888;DHT22;51386;53.082;8.816;2022-07-25T13:34:26;33.70;40.30
64888;DHT22;51386;53.082;8.816;2022-07-25T13:36:54;33.60;40.50
64888;DHT22;51386;53.082;8.816;2022-07-25T13:39:21;33.50;40.80
64888;DHT22;51386;53.082;8.816;2022-07-25T13:41:49;33.30;41.20
64888;DHT22;51386;53.082;8.816;2022-07-25T13:44:16;33.20;41.80
64888;DHT22;51386;53.082;8.816;2022-07-25T13:46:43;33.10;42.20
64888;DHT22;51386;53.082;8.816;2022-07-25T13:49:17;32.90;42.40
64888;DHT22;51386;53.082;8.816;2022-07-25T13:51:44;32.80;42.60
64888;DHT22;51386;53.082;8.816;2022-07-25T13:54:13;32.70;42.20
64888;DHT22;51386;53.082;8.816;2022-07-25T13:56:40;32.60;41.70
64888;DHT22;51386;53.082;8.816;2022-07-25T13:59:09;32.50;41.60
64888;DHT22;51386;53.082;8.816;2022-07-25T14:01:41;32.30;41.50
64888;DHT22;51386;53.082;8.816;2022-07-25T14:04:10;32.20;41.50
64888;DHT22;51386;53.082;8.816;2022-07-25T14:06:39;32.00;41.50
64888;DHT22;51386;53.082;8.816;2022-07-25T14:09:06;31.80;41.50
64888;DHT22;51386;53.082;8.816;2022-07-25T14:11:34;31.60;41.70
64888;DHT22;51386;53.082;8.816;2022-07-25T14:14:02;31.40;42.40
64888;DHT22;51386;53.082;8.816;2022-07-25T14:16:29;31.20;42.50
64888;DHT22;51386;53.082;8.816;2022-07-25T14:18:57;31.10;42.90
64888;DHT22;51386;53.082;8.816;2022-07-25T14:21:24;30.80;43.20
64888;DHT22;51386;53.082;8.816;2022-07-25T14:23:53;30.60;44.00
64888;DHT22;51386;53.082;8.816;2022-07-25T14:26:20;30.50;44.60
64888;DHT22;51386;53.082;8.816;2022-07-25T14:28:48;30.20;45.70
64888;DHT22;51386;53.082;8.816;2022-07-25T14:31:16;30.00;46.50
64888;DHT22;51386;53.082;8.816;2022-07-25T14:33:43;29.80;48.10
64888;DHT22;51386;53.082;8.816;2022-07-25T14:36:11;29.60;49.20
64888;DHT22;51386;53.082;8.816;2022-07-25T14:38:38;29.30;52.60
64888;DHT22;51386;53.082;8.816;2022-07-25T14:41:07;29.10;54.20
64888;DHT22;51386;53.082;8.816;2022-07-25T14:43:39;28.80;55.40
64888;DHT22;51386;53.082;8.816;2022-07-25T14:46:07;28.50;55.50
64888;DHT22;51386;53.082;8.816;2022-07-25T14:48:35;28.30;56.80
64888;DHT22;51386;53.082;8.816;2022-07-25T14:51:04;28.10;57.20
64888;DHT22;51386;53.082;8.816;2022-07-25T14:53:33;27.90;58.10
64888;DHT22;51386;53.082;8.816;2022-07-25T14:56:02;27.90;60.00
64888;DHT22;51386;53.082;8.816;2022-07-25T14:58:32;27.90;59.90
64888;DHT22;51386;53.082;8.816;2022-07-25T15:01:00;27.90;58.70
64888;DHT22;51386;53.082;8.816;2022-07-25T15:03:28;28.00;58.90
64888;DHT22;51386;53.082;8.816;2022-07-25T15:05:55;28.00;58.50
64888;DHT22;51386;53.082;8.816;2022-07-25T15:08:23;28.00;58.70
64888;DHT22;51386;53.082;8.816;2022-07-25T15:10:54;28.00;59.00
64888;DHT22;51386;53.082;8.816;2022-07-25T15:13:22;28.00;58.50
64888;DHT22;51386;53.082;8.816;2022-07-25T15:16:00;28.00;58.60
64888;DHT22;51386;53.082;8.816;2022-07-25T15:18:29;28.00;59.20
64888;DHT22;51386;53.082;8.816;2022-07-25T15:20:57;28.00;59.60
64888;DHT22;51386;53.082;8.816;2022-07-25T15:23:25;28.10;59.60
64888;DHT22;51386;53.082;8.816;2022-07-25T15:25:57;28.10;60.10
64888;DHT22;51386;53.082;8.816;2022-07-25T15:28:31;28.10;60.30
64888;DHT22;51386;53.082;8.816;2022-07-25T15:31:00;28.10;59.10
64888;DHT22;51386;53.082;8.816;2022-07-25T15:33:28;28.10;58.60
64888;DHT22;51386;53.082;8.816;2022-07-25T15:35:55;28.10;57.90
64888;DHT22;51386;53.082;8.816;2022-07-25T15:38:23;28.00;57.00
64888;DHT22;51386;53.082;8.816;2022-07-25T15:40:51;28.00;56.40
64888;DHT22;51386;53.082;8.816;2022-07-25T15:43:18;27.90;56.60